createdAt,value
2018-06-24T00:01:27.099Z,2.53
2018-06-24T00:04:04.679Z,2.03
2018-06-24T00:06:42.721Z,2.73
2018-06-24T00:09:20.097Z,2.07
2018-06-24T00:11:57.528Z,3.00
2018-06-24T00:14:34.993Z,2.37
2018-06-24T00:17:13.151Z,2.53
2018-06-24T00:19:51.090Z,2.07
2018-06-24T00:22:29.206Z,3.13
2018-06-24T00:25:07.546Z,1.97
2018-06-24T00:27:45.882Z,3.00
2018-06-24T00:30:23.579Z,2.17
2018-06-24T00:33:02.001Z,2.47
2018-06-24T00:46:05.921Z,2.07
2018-06-24T00:48:43.553Z,2.20
2018-06-24T00:51:21.258Z,2.40
2018-06-24T00:53:58.887Z,2.33
2018-06-24T00:56:36.001Z,2.10
2018-06-24T00:59:14.556Z,2.10
2018-06-24T01:01:51.881Z,2.07
2018-06-24T01:04:29.803Z,2.23
2018-06-24T01:07:07.314Z,2.10
2018-06-24T01:09:44.888Z,2.50
2018-06-24T01:12:22.323Z,2.20
2018-06-24T01:14:59.840Z,2.20
2018-06-24T01:17:37.369Z,3.07
2018-06-24T01:20:15.586Z,2.07
2018-06-24T01:22:52.882Z,2.17
2018-06-24T01:25:30.391Z,2.40
2018-06-24T01:28:07.777Z,2.43
2018-06-24T01:30:45.193Z,2.53
2018-06-24T01:33:22.777Z,2.10
2018-06-24T01:36:00.302Z,2.57
2018-06-24T01:38:37.781Z,2.40
2018-06-24T01:41:15.325Z,2.27
2018-06-24T01:43:52.712Z,2.23
2018-06-24T01:46:30.395Z,2.37
2018-06-24T01:49:07.810Z,2.40
2018-06-24T01:51:45.499Z,2.47
2018-06-24T01:54:22.868Z,2.07
2018-06-24T01:57:00.479Z,2.07
2018-06-24T01:59:37.966Z,2.00
2018-06-24T02:02:15.667Z,1.90
2018-06-24T02:04:53.117Z,2.00
2018-06-24T02:07:30.394Z,2.00
2018-06-24T02:10:08.040Z,2.33
2018-06-24T02:12:45.302Z,2.23
2018-06-24T02:15:22.719Z,2.87
2018-06-24T02:18:01.034Z,2.27
2018-06-24T02:20:37.933Z,2.10
2018-06-24T02:23:15.271Z,2.23
2018-06-24T02:25:52.462Z,2.40
2018-06-24T02:28:30.211Z,2.73
2018-06-24T02:31:07.579Z,2.30
2018-06-24T02:33:45.147Z,2.00
2018-06-24T02:36:22.754Z,1.80
2018-06-24T02:39:00.146Z,2.53
2018-06-24T02:41:37.880Z,2.47
2018-06-24T02:44:15.314Z,2.23
2018-06-24T02:46:52.919Z,2.00
2018-06-24T02:49:30.752Z,2.00
2018-06-24T02:52:08.090Z,2.00
2018-06-24T02:54:45.555Z,2.47
2018-06-24T02:57:22.832Z,2.20
2018-06-24T03:00:01.057Z,2.33
2018-06-24T03:02:38.878Z,2.03
2018-06-24T03:05:15.966Z,1.97
2018-06-24T03:07:53.632Z,2.47
2018-06-24T03:10:30.664Z,2.60
2018-06-24T03:13:07.908Z,2.20
2018-06-24T03:15:45.625Z,1.87
2018-06-24T03:18:23.424Z,2.00
2018-06-24T03:21:01.375Z,2.10
2018-06-24T03:23:39.721Z,2.33
2018-06-24T03:26:17.030Z,1.57
2018-06-24T03:28:54.532Z,2.50
2018-06-24T03:31:32.012Z,2.20
2018-06-24T03:34:09.726Z,2.10
2018-06-24T03:36:47.063Z,1.90
2018-06-24T03:39:24.503Z,2.20
2018-06-24T03:42:01.952Z,1.97
2018-06-24T03:44:39.783Z,2.50
2018-06-24T03:47:16.870Z,2.57
2018-06-24T03:49:54.461Z,2.70
2018-06-24T03:52:31.805Z,2.17
2018-06-24T03:55:09.382Z,2.87
2018-06-24T03:57:46.763Z,2.50
2018-06-24T04:00:24.156Z,2.53
2018-06-24T04:03:01.504Z,2.70
2018-06-24T04:05:39.044Z,2.83
2018-06-24T04:08:16.585Z,2.40
2018-06-24T04:10:54.484Z,2.53
2018-06-24T04:13:32.051Z,2.27
2018-06-24T04:16:10.548Z,2.30
2018-06-24T04:18:48.410Z,2.03
2018-06-24T04:21:28.487Z,2.53
2018-06-24T04:24:06.632Z,1.90
2018-06-24T04:26:43.903Z,2.30
2018-06-24T04:29:21.375Z,2.10
2018-06-24T04:31:59.378Z,2.30
2018-06-24T04:34:37.047Z,2.20
2018-06-24T04:37:14.724Z,2.53
2018-06-24T04:39:51.996Z,1.93
2018-06-24T04:42:29.661Z,2.00
2018-06-24T04:45:07.119Z,2.23
2018-06-24T04:47:44.218Z,2.00
2018-06-24T04:50:21.587Z,2.03
2018-06-24T04:52:58.935Z,2.67
2018-06-24T04:55:36.604Z,2.20
2018-06-24T04:58:14.223Z,2.50
2018-06-24T05:00:52.006Z,1.80
2018-06-24T05:03:29.492Z,2.00
2018-06-24T05:06:06.986Z,1.80
2018-06-24T05:08:44.506Z,2.00
2018-06-24T05:11:22.261Z,2.13
2018-06-24T05:13:59.700Z,2.33
2018-06-24T05:16:37.482Z,2.33
2018-06-24T05:19:14.807Z,2.70
2018-06-24T05:21:52.287Z,2.33
2018-06-24T05:24:29.764Z,2.50
2018-06-24T05:27:06.788Z,2.17
2018-06-24T05:29:43.754Z,2.03
2018-06-24T05:32:21.278Z,2.17
2018-06-24T05:34:58.413Z,2.10
2018-06-24T05:37:35.767Z,2.77
2018-06-24T05:40:13.128Z,2.03
2018-06-24T05:42:50.454Z,2.00
2018-06-24T05:45:27.612Z,1.90
2018-06-24T05:48:04.898Z,1.97
2018-06-24T05:50:42.464Z,1.60
2018-06-24T05:53:20.291Z,1.80
2018-06-24T05:55:57.779Z,1.90
2018-06-24T05:58:35.175Z,1.60
2018-06-24T06:01:12.155Z,2.40
2018-06-24T06:03:49.746Z,2.07
2018-06-24T06:06:27.183Z,1.50
2018-06-24T06:09:04.100Z,1.83
2018-06-24T06:11:41.114Z,2.50
2018-06-24T06:14:18.330Z,1.67
2018-06-24T06:16:55.825Z,1.30
2018-06-24T06:19:33.302Z,1.20
2018-06-24T06:22:10.859Z,1.37
2018-06-24T06:24:48.268Z,1.20
2018-06-24T06:27:25.225Z,1.37
2018-06-24T06:30:02.812Z,1.40
2018-06-24T06:32:40.283Z,1.50
2018-06-24T06:35:17.400Z,1.17
2018-06-24T06:37:54.593Z,1.27
2018-06-24T06:40:31.891Z,1.37
2018-06-24T06:43:09.858Z,1.67
2018-06-24T06:45:47.332Z,1.83
2018-06-24T06:48:24.801Z,1.67
2018-06-24T06:51:01.970Z,1.97
2018-06-24T06:53:39.194Z,1.50
2018-06-24T06:56:16.512Z,1.30
2018-06-24T06:58:53.789Z,1.33
2018-06-24T07:01:31.188Z,1.10
2018-06-24T07:04:08.678Z,1.47
2018-06-24T07:06:46.296Z,1.13
2018-06-24T07:09:23.109Z,1.53
2018-06-24T07:12:00.497Z,1.40
2018-06-24T07:14:37.764Z,1.20
2018-06-24T07:17:15.268Z,0.93
2018-06-24T07:19:52.686Z,1.40
2018-06-24T07:22:30.185Z,0.90
2018-06-24T07:25:07.984Z,0.90
2018-06-24T07:27:45.787Z,1.00
2018-06-24T07:30:23.170Z,1.10
2018-06-24T07:33:00.506Z,1.30
2018-06-24T07:35:38.039Z,1.10
2018-06-24T07:38:15.672Z,1.43
2018-06-24T07:40:53.226Z,1.30
2018-06-24T07:43:30.277Z,1.50
2018-06-24T07:46:07.252Z,1.80
2018-06-24T07:48:44.829Z,1.70
2018-06-24T07:51:22.105Z,1.37
2018-06-24T07:53:59.621Z,1.37
2018-06-24T07:56:37.386Z,1.60
2018-06-24T07:59:16.479Z,1.33
2018-06-24T08:01:53.905Z,1.83
2018-06-24T08:04:36.406Z,1.47
2018-06-24T08:07:17.934Z,1.30
2018-06-24T08:09:55.424Z,1.43
2018-06-24T08:12:33.196Z,1.00
2018-06-24T08:15:08.587Z,1.00
2018-06-24T08:17:46.602Z,1.20
2018-06-24T08:20:26.300Z,1.23
2018-06-24T08:23:05.086Z,1.80
2018-06-24T08:25:43.815Z,1.00
2018-06-24T08:28:22.128Z,1.00
2018-06-24T08:31:02.203Z,1.00
2018-06-24T08:33:40.631Z,1.40
2018-06-24T08:36:18.956Z,1.30
2018-06-24T08:38:57.340Z,1.30
2018-06-24T08:41:35.761Z,0.97
2018-06-24T08:44:13.599Z,1.27
2018-06-24T08:46:51.860Z,1.27
2018-06-24T08:49:30.428Z,2.03
2018-06-24T08:52:08.593Z,1.20
2018-06-24T08:54:46.984Z,1.13
2018-06-24T08:57:24.616Z,1.60
2018-06-24T09:00:04.802Z,1.23
2018-06-24T09:02:42.866Z,1.20
2018-06-24T09:05:20.673Z,1.17
2018-06-24T09:07:58.407Z,1.00
2018-06-24T09:10:38.572Z,1.60
2018-06-24T09:13:16.814Z,1.70
2018-06-24T09:15:55.239Z,1.33
2018-06-24T09:18:34.405Z,1.20
2018-06-24T09:21:13.166Z,1.67
2018-06-24T09:23:51.134Z,1.20
2018-06-24T09:26:29.609Z,1.00
2018-06-24T09:29:08.458Z,1.23
2018-06-24T09:31:46.663Z,1.43
2018-06-24T09:34:25.243Z,0.97
2018-06-24T09:37:03.513Z,1.30
2018-06-24T09:39:42.947Z,0.80
2018-06-24T09:42:21.048Z,1.00
2018-06-24T09:44:59.836Z,1.30
2018-06-24T09:47:37.118Z,1.00
2018-06-24T09:50:14.822Z,1.00
2018-06-24T09:52:52.196Z,1.07
2018-06-24T09:55:29.780Z,1.27
2018-06-24T09:58:07.061Z,1.27
2018-06-24T10:00:44.088Z,0.97
2018-06-24T10:03:21.913Z,0.90
2018-06-24T10:05:59.274Z,1.73
2018-06-24T10:08:36.911Z,1.17
2018-06-24T10:11:14.434Z,0.93
2018-06-24T10:13:51.515Z,1.47
2018-06-24T10:16:29.128Z,1.27
2018-06-24T10:19:07.070Z,1.20
2018-06-24T10:21:44.414Z,1.23
2018-06-24T10:24:22.231Z,0.87
2018-06-24T10:26:59.412Z,1.20
2018-06-24T10:29:38.179Z,1.33
2018-06-24T10:32:15.181Z,0.50
2018-06-24T10:34:52.530Z,0.93
2018-06-24T10:37:29.983Z,0.90
2018-06-24T10:40:08.023Z,1.47
2018-06-24T10:42:46.159Z,0.93
2018-06-24T10:45:23.290Z,1.40
2018-06-24T10:48:00.439Z,1.10
2018-06-24T10:50:38.325Z,0.90
2018-06-24T10:53:16.040Z,0.80
2018-06-24T10:55:53.378Z,1.07
2018-06-24T10:58:30.650Z,0.80
2018-06-24T11:01:08.096Z,0.90
2018-06-24T11:03:45.088Z,1.00
2018-06-24T11:06:22.437Z,1.23
2018-06-24T11:09:00.012Z,1.13
2018-06-24T11:11:38.273Z,0.97
2018-06-24T11:14:15.834Z,1.57
2018-06-24T11:16:53.026Z,1.03
2018-06-24T11:19:30.935Z,1.17
2018-06-24T11:22:08.447Z,1.00
2018-06-24T11:24:49.954Z,0.97
2018-06-24T11:27:27.321Z,1.00
2018-06-24T11:30:04.885Z,1.20
2018-06-24T11:32:42.548Z,1.57
2018-06-24T11:35:20.068Z,0.83
2018-06-24T11:37:57.343Z,1.07
2018-06-24T11:40:34.672Z,1.10
2018-06-24T11:43:12.086Z,1.10
2018-06-24T11:45:49.370Z,0.90
2018-06-24T11:48:26.750Z,1.00
2018-06-24T11:51:04.236Z,0.90
2018-06-24T11:53:41.731Z,0.83
2018-06-24T11:56:18.820Z,1.37
2018-06-24T11:58:56.140Z,0.97
2018-06-24T12:01:33.557Z,1.80
2018-06-24T12:04:11.149Z,1.53
2018-06-24T12:06:49.009Z,1.20
2018-06-24T12:09:26.675Z,1.03
2018-06-24T12:12:04.123Z,1.20
2018-06-24T12:14:41.320Z,1.10
2018-06-24T12:17:18.844Z,1.10
2018-06-24T12:19:56.381Z,0.70
2018-06-24T12:22:33.971Z,0.70
2018-06-24T12:25:11.076Z,0.90
2018-06-24T12:27:48.372Z,1.07
2018-06-24T12:30:25.606Z,0.90
2018-06-24T12:33:03.311Z,1.10
2018-06-24T12:35:40.537Z,1.07
2018-06-24T12:38:17.793Z,0.90
2018-06-24T12:40:55.188Z,1.03
2018-06-24T12:43:32.803Z,1.47
2018-06-24T12:46:10.438Z,1.23
2018-06-24T12:48:47.887Z,1.10
2018-06-24T12:51:25.191Z,1.03
2018-06-24T12:54:02.365Z,1.37
2018-06-24T12:56:39.883Z,1.47
2018-06-24T12:59:17.661Z,0.90
2018-06-24T13:01:55.043Z,0.97
2018-06-24T13:04:32.271Z,1.63
2018-06-24T13:07:09.781Z,1.50
2018-06-24T13:09:46.894Z,1.17
2018-06-24T13:12:24.111Z,1.30
2018-06-24T13:15:01.359Z,1.10
2018-06-24T13:17:38.799Z,1.13
2018-06-24T13:20:15.808Z,1.13
2018-06-24T13:22:53.366Z,0.90
2018-06-24T13:25:30.781Z,1.27
2018-06-24T13:28:08.288Z,1.00
2018-06-24T13:30:45.755Z,0.80
2018-06-24T13:33:23.414Z,0.87
2018-06-24T13:36:00.621Z,1.03
2018-06-24T13:38:37.847Z,0.87
2018-06-24T13:41:15.042Z,1.00
2018-06-24T13:43:52.105Z,1.00
2018-06-24T13:46:29.294Z,1.00
2018-06-24T13:49:06.427Z,1.33
2018-06-24T13:51:43.983Z,1.53
2018-06-24T13:54:21.630Z,0.93
2018-06-24T13:56:59.214Z,1.33
2018-06-24T13:59:36.792Z,0.80
2018-06-24T14:02:14.239Z,1.30
2018-06-24T14:04:52.053Z,0.90
2018-06-24T14:07:29.355Z,1.33
2018-06-24T14:10:06.943Z,1.13
2018-06-24T14:12:44.424Z,1.57
2018-06-24T14:15:22.459Z,1.23
2018-06-24T14:17:59.724Z,1.10
2018-06-24T14:20:37.555Z,0.93
2018-06-24T14:23:14.837Z,1.17
2018-06-24T14:25:52.544Z,0.90
2018-06-24T14:28:30.019Z,0.90
2018-06-24T14:31:07.553Z,0.93
2018-06-24T14:33:45.060Z,1.03
2018-06-24T14:36:22.320Z,0.80
2018-06-24T14:38:59.896Z,0.77
2018-06-24T14:41:37.444Z,0.90
2018-06-24T14:44:14.923Z,0.70
2018-06-24T14:46:52.717Z,0.97
2018-06-24T14:49:30.096Z,1.13
2018-06-24T14:52:07.751Z,1.00
2018-06-24T14:54:44.912Z,1.20
2018-06-24T14:57:22.043Z,1.20
2018-06-24T14:59:59.742Z,1.23
2018-06-24T15:02:39.662Z,1.40
2018-06-24T15:05:16.855Z,1.20
2018-06-24T15:07:54.450Z,1.40
2018-06-24T15:10:32.081Z,1.30
2018-06-24T15:13:09.687Z,1.20
2018-06-24T15:15:47.196Z,1.00
2018-06-24T15:18:24.683Z,1.10
2018-06-24T15:21:02.224Z,1.20
2018-06-24T15:23:39.506Z,1.13
2018-06-24T15:26:16.330Z,0.93
2018-06-24T15:28:53.567Z,1.47
2018-06-24T15:31:30.839Z,1.23
2018-06-24T15:34:07.955Z,2.00
2018-06-24T15:36:45.352Z,1.90
2018-06-24T15:39:22.770Z,1.70
2018-06-24T15:41:59.926Z,1.40
2018-06-24T15:44:36.931Z,2.00
2018-06-24T15:47:14.596Z,1.53
2018-06-24T15:49:52.380Z,1.40
2018-06-24T15:52:29.890Z,1.37
2018-06-24T15:55:07.233Z,1.47
2018-06-24T15:57:44.538Z,2.30
2018-06-24T16:00:22.109Z,1.63
2018-06-24T16:02:59.522Z,1.90
2018-06-24T16:05:36.725Z,1.70
2018-06-24T16:08:14.440Z,1.70
2018-06-24T16:10:52.041Z,1.93
2018-06-24T16:13:29.796Z,1.30
2018-06-24T16:16:07.159Z,2.10
2018-06-24T16:18:44.318Z,2.77
2018-06-24T16:21:21.616Z,2.03
2018-06-24T16:23:59.156Z,1.97
2018-06-24T16:26:36.492Z,1.80
2018-06-24T16:29:13.934Z,1.57
2018-06-24T16:31:51.930Z,1.40
2018-06-24T16:34:29.494Z,1.10
2018-06-24T16:37:07.023Z,1.27
2018-06-24T16:39:44.471Z,1.57
2018-06-24T16:42:22.104Z,1.77
2018-06-24T16:44:59.674Z,1.70
2018-06-24T16:47:37.483Z,1.63
2018-06-24T16:50:14.989Z,1.50
2018-06-24T16:52:52.441Z,2.20
2018-06-24T16:55:30.093Z,1.60
2018-06-24T16:58:07.929Z,2.00
2018-06-24T17:00:45.317Z,1.37
2018-06-24T17:03:22.823Z,1.80
2018-06-24T17:06:00.250Z,2.13
2018-06-24T17:08:37.820Z,1.53
2018-06-24T17:11:15.312Z,1.83
2018-06-24T17:13:52.954Z,1.77
2018-06-24T17:16:30.257Z,1.90
2018-06-24T17:19:07.254Z,2.17
2018-06-24T17:21:44.669Z,1.60
2018-06-24T17:24:22.355Z,1.50
2018-06-24T17:26:59.726Z,1.80
2018-06-24T17:29:37.101Z,1.50
2018-06-24T17:32:14.178Z,1.70
2018-06-24T17:34:51.281Z,1.50
2018-06-24T17:37:28.536Z,1.60
2018-06-24T17:40:06.188Z,1.50
2018-06-24T17:42:43.847Z,2.00
2018-06-24T17:45:21.103Z,1.40
2018-06-24T17:47:58.881Z,1.70
2018-06-24T17:50:36.485Z,1.53
2018-06-24T17:53:14.207Z,1.40
2018-06-24T17:55:51.852Z,1.50
2018-06-24T17:58:29.156Z,1.70
2018-06-24T18:01:06.840Z,1.80
2018-06-24T18:03:43.958Z,2.50
2018-06-24T18:06:21.103Z,1.90
2018-06-24T18:08:58.321Z,1.80
2018-06-24T18:11:35.851Z,1.67
2018-06-24T18:14:13.419Z,1.37
2018-06-24T18:16:51.282Z,1.40
2018-06-24T18:19:28.767Z,1.10
2018-06-24T18:22:06.153Z,1.83
2018-06-24T18:24:43.638Z,2.13
2018-06-24T18:27:21.382Z,1.20
2018-06-24T18:29:58.844Z,1.40
2018-06-24T18:32:36.515Z,1.20
2018-06-24T18:35:14.035Z,1.60
2018-06-24T18:37:51.742Z,1.20
2018-06-24T18:40:29.344Z,1.57
2018-06-24T18:42:56.949Z,1.57
2018-06-24T18:45:24.445Z,1.77
2018-06-24T18:47:51.833Z,1.50
2018-06-24T18:50:19.246Z,1.07
2018-06-24T18:52:46.622Z,1.20
2018-06-24T18:55:14.137Z,1.20
2018-06-24T18:57:41.519Z,1.30
2018-06-24T19:00:09.093Z,1.17
2018-06-24T19:02:37.373Z,1.00
2018-06-24T19:05:06.189Z,1.30
2018-06-24T19:07:42.552Z,1.50
2018-06-24T19:10:10.328Z,1.07
2018-06-24T19:12:37.813Z,1.87
2018-06-24T19:15:16.015Z,1.37
2018-06-24T19:20:34.038Z,1.43
2018-06-24T19:23:09.514Z,1.30
2018-06-24T19:25:38.096Z,1.67
2018-06-24T19:28:05.918Z,1.37
2018-06-24T19:30:33.365Z,1.83
2018-06-24T19:33:01.080Z,1.57
2018-06-24T19:35:28.677Z,1.70
2018-06-24T19:37:56.196Z,1.47
2018-06-24T19:40:23.715Z,1.60
2018-06-24T19:42:53.259Z,1.70
2018-06-24T19:45:21.142Z,1.70
2018-06-24T19:47:48.565Z,2.17
2018-06-24T19:50:16.199Z,1.90
2018-06-24T19:52:43.593Z,2.00
2018-06-24T19:55:11.244Z,1.93
2018-06-24T19:57:38.676Z,1.60
2018-06-24T20:00:06.126Z,2.00
2018-06-24T20:02:33.530Z,1.63
2018-06-24T20:05:01.403Z,1.87
2018-06-24T20:07:28.729Z,1.63
2018-06-24T20:09:56.534Z,2.00
2018-06-24T20:12:23.863Z,2.00
2018-06-24T20:14:51.428Z,1.70
2018-06-24T20:17:18.713Z,1.90
2018-06-24T20:19:45.985Z,2.10
2018-06-24T20:22:13.217Z,2.10
2018-06-24T20:24:40.431Z,1.70
2018-06-24T20:27:07.865Z,1.70
2018-06-24T20:29:35.093Z,1.87
2018-06-24T20:32:02.381Z,1.83
2018-06-24T20:34:29.649Z,2.07
2018-06-24T20:36:56.920Z,2.00
2018-06-24T20:39:24.222Z,1.90
2018-06-24T20:41:53.345Z,2.20
2018-06-24T20:44:20.608Z,2.20
2018-06-24T20:46:47.864Z,2.13
2018-06-24T20:49:15.127Z,1.90
2018-06-24T20:51:42.424Z,2.40
2018-06-24T20:54:09.666Z,2.40
2018-06-24T20:56:36.951Z,2.00
2018-06-24T20:59:04.278Z,2.23
2018-06-24T21:01:31.551Z,2.47
2018-06-24T21:03:58.999Z,2.40
2018-06-24T21:06:26.256Z,2.33
2018-06-24T21:08:53.528Z,2.40
2018-06-24T21:11:20.819Z,2.10
2018-06-24T21:13:48.087Z,2.10
2018-06-24T21:16:15.345Z,2.33
2018-06-24T21:18:42.911Z,2.23
2018-06-24T21:21:10.285Z,2.07
2018-06-24T21:23:37.599Z,2.43
2018-06-24T21:26:04.843Z,2.37
2018-06-24T21:28:32.107Z,2.47
2018-06-24T21:30:59.379Z,2.10
2018-06-24T21:33:26.625Z,2.27
2018-06-24T21:35:53.899Z,2.73
2018-06-24T21:38:21.165Z,2.43
2018-06-24T21:40:48.403Z,2.43
2018-06-24T21:43:15.822Z,2.73
2018-06-24T21:45:43.121Z,2.03
2018-06-24T21:48:10.367Z,2.00
2018-06-24T21:50:37.602Z,2.20
2018-06-24T21:53:04.934Z,2.07
2018-06-24T21:55:32.184Z,2.80
2018-06-24T21:57:59.503Z,1.73
2018-06-24T22:00:27.600Z,2.10
2018-06-24T22:02:54.932Z,1.90
2018-06-24T22:05:22.161Z,2.10
2018-06-24T22:07:49.425Z,2.37
2018-06-24T22:10:16.687Z,2.77
2018-06-24T22:12:43.950Z,2.73
2018-06-24T22:15:11.310Z,2.90
2018-06-24T22:17:38.577Z,2.80
2018-06-24T22:20:05.857Z,2.80
2018-06-24T22:22:33.193Z,3.27
2018-06-24T22:25:00.422Z,3.20
2018-06-24T22:27:27.646Z,3.10
2018-06-24T22:29:54.925Z,2.60
2018-06-24T22:32:22.190Z,2.80
2018-06-24T22:34:49.498Z,2.80
2018-06-24T22:37:16.744Z,3.37
2018-06-24T22:39:44.026Z,2.90
2018-06-24T22:42:11.258Z,2.73
2018-06-24T22:44:38.547Z,2.57
2018-06-24T22:47:05.843Z,2.60
2018-06-24T22:49:33.116Z,2.90
2018-06-24T22:52:00.363Z,2.43
2018-06-24T22:54:27.606Z,3.03
2018-06-24T22:56:54.862Z,2.63
2018-06-24T22:59:33.401Z,2.67
2018-06-24T23:02:00.634Z,2.80
2018-06-24T23:04:27.869Z,2.77
2018-06-24T23:06:55.169Z,3.37
2018-06-24T23:09:22.426Z,2.93
2018-06-24T23:11:49.696Z,2.90
2018-06-24T23:14:16.936Z,3.57
2018-06-24T23:16:44.198Z,3.63
2018-06-24T23:19:11.461Z,3.23
2018-06-24T23:21:38.753Z,3.30
2018-06-24T23:24:06.052Z,3.47
2018-06-24T23:26:33.301Z,3.80
2018-06-24T23:29:00.560Z,3.17
2018-06-24T23:31:27.770Z,3.70
2018-06-24T23:33:55.062Z,3.53
2018-06-24T23:36:22.279Z,3.47
2018-06-24T23:38:49.517Z,3.67
2018-06-24T23:41:16.777Z,3.20
2018-06-24T23:43:43.995Z,3.60
2018-06-24T23:46:11.242Z,3.47
2018-06-24T23:48:38.461Z,3.53
2018-06-24T23:51:05.801Z,3.60
2018-06-24T23:53:33.093Z,3.70
2018-06-24T23:56:00.365Z,3.23
2018-06-24T23:58:27.638Z,3.40
